Briefing drone pour Malesherbes

Rechercher une autre localisation

Conditions de vol :


Nous sommes le : Samedi 06 mars 2021
Il est 13:51 UTC (14:51 LT)

Lever de soleil : 05:54 UTC (06:54 LT)
Coucher de soleil : 18:08 UTC (19:08 LT)

Météo

L'essentiel des conditions de vol

VIGILANCE MÉTÉO FRANCE - Loiret (45)
Pas de vigilances particulieres
CARTES DES FRONTS
METAR de LFPM
LFPM 061330Z AUTO 06010KT 020V110 CAVOK 09/M05 Q1028

Date d'émission: 06/03/2021
Heure d'émission: 13:30 UTC
Vent: 060° (variable du 020° au 110°) pour 10 KT (19 km/h)
Visibilité horizontale: > 10 km
Plafond : Plafond et visibilité OK (CAVOK)
Température: 9 °C
Point de rosée: -5 °C
Humidité: 37%
Pression (QNH): 1028 hPa
Prévision 24h pour Melun (20 km)
Vent : 43° pour 3 KT (10 km/h)
Temperature Maxi: 3 °C
Temperature Min: 3 °C
Humidité : 71%
Condition : Ciel dégagé


WEBCAM POUR MALESHERBES

Réglementation

Voler en sécurité

CARTES AERONAUTIQUE 1/500.000
CARTES VAC (LFPM)
SUP AIP




Chargement des AIP...
NOTAM (MALESHERBES + Terrain à proximité / FIR )




Chargement des NOTAMS...
CONTACT PREFECTURE 45


Avertissement : Les données mises à disposition sont indicatives. Oxygène Drone ne pourra être tenu responsable de dégâts causés aux biens et aux personnes.